Welcome to Northern Hawkes Bay. New Zealand.
PWS Header
      nz Flag



Hit Counter


W3C Valid W3C Valid logo


    Wairoa

Select any of the Stations below to visit their websites.










Historic Data from Weather Underground
Select the location of interest below. Wairoa is the default. Please have patience, this Data is slow to load in.
Northern Hawkes Bay Historical Data
Daily Summary for March 8, 2017 Units:  Metric    English   Both
« Previous Day
Next Day »
Daily Weekly Monthly Yearly Custom
  High: Low: Average:
Temperature: 16.3 °C 12.8 °C 14.3 °C
Dew Point: 14.6 °C 10.8 °C 12.9 °C
Humidity: 99% 74% 92%
Wind Speed: 30.6km/h 0.0km/h 11.1km/h
Wind Gust: 45.4km/h - -
Wind- - SSW
Pressure: 1021.2 hPa 1012.8 hPa -
Precipitation: 43.7 mm    
Historical Graphs
 
 
Tabular Data for March 8, 2017
Time Temperature Dew Point Pressure Wind Wind Speed Wind Gust Humidity Rainfall Rate (Hourly) solar
00:00 14.5 °C 14.3 °C 1013.4 hPa WSW 19.5 km/h 40.4 km/h 99% 8.4 mm 0 W/m2
00:05 14.5 °C 14.3 °C 1013.4 hPa WSW 28.0 km/h 40.4 km/h 99% 8.9 mm 0 W/m2
00:10 14.6 °C 14.4 °C 1013.4 hPa SSW 21.9 km/h 39.3 km/h 99% 8.6 mm 0 W/m2
00:15 14.6 °C 14.4 °C 1013.8 hPa SW 24.5 km/h 41.7 km/h 99% 8.6 mm 0 W/m2
00:20 14.5 °C 14.3 °C 1013.4 hPa SW 15.8 km/h 41.7 km/h 99% 8.1 mm 0 W/m2
00:25 14.5 °C 14.3 °C 1013.8 hPa SW 29.4 km/h 41.7 km/h 99% 8.4 mm 0 W/m2
00:30 14.4 °C 14.3 °C 1013.4 hPa SW 24.5 km/h 43.9 km/h 99% 8.6 mm 0 W/m2
00:35 14.4 °C 14.3 °C 1013.4 hPa SW 19.5 km/h 43.9 km/h 99% 8.4 mm 0 W/m2
00:41 14.4 °C 14.3 °C 1013.4 hPa WSW 30.6 km/h 41.7 km/h 99% 8.1 mm 0 W/m2
00:46 14.4 °C 14.3 °C 1013.4 hPa SW 21.9 km/h 41.7 km/h 99% 7.6 mm 0 W/m2
00:51 14.4 °C 14.3 °C 1013.4 hPa SSW 23.3 km/h 41.7 km/h 99% 7.6 mm 0 W/m2
00:56 14.5 °C 14.3 °C 1013.4 hPa SW 23.3 km/h 43.9 km/h 99% 6.9 mm 0 W/m2
01:01 14.6 °C 14.4 °C 1013.4 hPa SW 21.9 km/h 43.9 km/h 99% 6.9 mm 0 W/m2
01:06 14.6 °C 14.4 °C 1013.4 hPa SSW 19.5 km/h 37.8 km/h 99% 6.3 mm 0 W/m2
01:11 14.6 °C 14.4 °C 1013.4 hPa SSW 25.6 km/h 37.8 km/h 99% 6.1 mm 0 W/m2
01:16 14.7 °C 14.6 °C 1013.4 hPa SSW 20.9 km/h 36.7 km/h 99% 5.6 mm 0 W/m2
01:21 14.6 °C 14.4 °C 1013.4 hPa SW 19.5 km/h 37.8 km/h 99% 5.6 mm 0 W/m2
01:26 14.6 °C 14.4 °C 1013.4 hPa SW 18.3 km/h 39.3 km/h 99% 5.3 mm 0 W/m2
01:31 14.4 °C 14.3 °C 1013.4 hPa SW 24.5 km/h 39.3 km/h 99% 6.1 mm 0 W/m2
01:36 14.4 °C 14.3 °C 1013.4 hPa SSW 12.2 km/h 40.4 km/h 99% 6.1 mm 0 W/m2
01:41 14.3 °C 14.2 °C 1013.4 hPa South 23.3 km/h 45.4 km/h 99% 6.1 mm 0 W/m2
01:46 14.2 °C 14.1 °C 1013.4 hPa South 29.4 km/h 45.4 km/h 99% 5.6 mm 0 W/m2
01:51 14.4 °C 14.3 °C 1013.4 hPa South 25.6 km/h 40.4 km/h 99% 5.6 mm 0 W/m2
01:56 14.4 °C 14.3 °C 1013.4 hPa SSW 23.3 km/h 43.9 km/h 99% 5.6 mm 0 W/m2
02:01 14.5 °C 14.3 °C 1013.1 hPa SSW 19.5 km/h 43.9 km/h 99% 5.3 mm 0 W/m2
02:06 14.5 °C 14.3 °C 1013.4 hPa SSW 21.9 km/h 41.7 km/h 99% 5.3 mm 0 W/m2
02:11 14.5 °C 14.2 °C 1013.4 hPa SSW 14.8 km/h 41.7 km/h 98% 5.1 mm 0 W/m2
02:16 14.5 °C 14.2 °C 1013.4 hPa SSW 24.5 km/h 36.7 km/h 98% 5.1 mm 0 W/m2
02:21 14.6 °C 14.1 °C 1013.4 hPa SSW 18.3 km/h 35.6 km/h 97% 4.8 mm 0 W/m2
02:26 14.6 °C 14.1 °C 1013.4 hPa SSW 20.9 km/h 30.6 km/h 97% 4.8 mm 0 W/m2
02:31 14.5 °C 14.1 °C 1013.1 hPa SSW 20.9 km/h 34.3 km/h 97% 3.8 mm 0 W/m2
02:36 14.5 °C 14.1 °C 1013.1 hPa SSW 20.9 km/h 34.3 km/h 97% 3.6 mm 0 W/m2
02:41 14.6 °C 14.1 °C 1013.1 hPa SSW 20.9 km/h 34.3 km/h 97% 3.6 mm 0 W/m2
02:46 14.6 °C 14.1 °C 1013.1 hPa South 14.8 km/h 34.3 km/h 97% 3.3 mm 0 W/m2
02:51 14.6 °C 14.1 °C 1013.1 hPa SSW 18.3 km/h 33.1 km/h 97% 3.6 mm 0 W/m2
02:56 14.4 °C 13.9 °C 1012.8 hPa SSW 19.5 km/h 37.8 km/h 97% 3.6 mm 0 W/m2
03:01 14.4 °C 13.9 °C 1013.1 hPa SSW 23.3 km/h 41.7 km/h 97% 3.8 mm 0 W/m2
03:06 14.2 °C 13.7 °C 1013.1 hPa South 21.9 km/h 41.7 km/h 97% 3.8 mm 0 W/m2
03:11 14.2 °C 13.7 °C 1013.4 hPa SSW 19.5 km/h 33.1 km/h 97% 3.6 mm 0 W/m2
03:16 14.2 °C 13.7 °C 1013.4 hPa SSW 24.5 km/h 36.7 km/h 97% 3.8 mm 0 W/m2
03:21 14.0 °C 13.6 °C 1013.8 hPa South 25.6 km/h 36.7 km/h 97% 3.8 mm 0 W/m2
03:26 13.9 °C 13.6 °C 1013.4 hPa South 20.9 km/h 36.7 km/h 98% 3.6 mm 0 W/m2
03:31 13.9 °C 13.8 °C 1013.4 hPa SSW 19.5 km/h 36.7 km/h 99% 3.6 mm 0 W/m2
03:36 13.8 °C 13.5 °C 1013.4 hPa South 15.8 km/h 30.6 km/h 98% 3.6 mm 0 W/m2
03:41 14.0 °C 13.6 °C 1013.1 hPa SSW 15.8 km/h 31.7 km/h 97% 3.3 mm 0 W/m2
03:46 14.1 °C 13.6 °C 1013.4 hPa SSW 25.6 km/h 31.7 km/h 97% 3.0 mm 0 W/m2
03:51 13.9 °C 13.4 °C 1013.4 hPa SSW 19.5 km/h 34.3 km/h 97% 3.3 mm 0 W/m2
03:56 13.7 °C 13.4 °C 1013.4 hPa SSW 20.9 km/h 34.3 km/h 98% 3.3 mm 0 W/m2
04:01 13.6 °C 13.3 °C 1013.4 hPa SSW 24.5 km/h 33.1 km/h 98% 2.8 mm 0 W/m2
04:06 13.7 °C 13.4 °C 1013.4 hPa SSW 15.8 km/h 34.3 km/h 98% 2.3 mm 0 W/m2
04:11 13.6 °C 13.3 °C 1013.4 hPa SSW 15.8 km/h 34.3 km/h 98% 2.3 mm 0 W/m2
04:16 13.5 °C 13.2 °C 1013.4 hPa SSW 15.8 km/h 29.4 km/h 98% 2.3 mm 0 W/m2
04:21 13.6 °C 13.3 °C 1013.4 hPa South 20.9 km/h 25.6 km/h 98% 2.3 mm 0 W/m2
04:26 14.1 °C 13.6 °C 1013.4 hPa SSW 24.5 km/h 30.6 km/h 97% 2.3 mm 0 W/m2
04:31 13.7 °C 13.6 °C 1013.8 hPa SSW 13.4 km/h 34.3 km/h 99% 2.3 mm 0 W/m2
04:36 13.6 °C 13.4 °C 1013.8 hPa SSW 23.3 km/h 34.3 km/h 99% 2.3 mm 0 W/m2
04:41 13.3 °C 13.2 °C 1013.8 hPa South 19.5 km/h 39.3 km/h 99% 2.0 mm 0 W/m2
04:46 13.4 °C 13.3 °C 1013.8 hPa SSW 15.8 km/h 39.3 km/h 99% 1.8 mm 0 W/m2
04:51 13.5 °C 13.2 °C 1013.8 hPa SW 17.2 km/h 35.6 km/h 98% 1.8 mm 0 W/m2
04:56 13.5 °C 13.1 °C 1013.8 hPa SW 17.2 km/h 28.0 km/h 97% 2.0 mm 0 W/m2
05:01 13.8 °C 13.2 °C 1013.8 hPa SW 17.2 km/h 31.7 km/h 96% 2.0 mm 0 W/m2
05:06 13.8 °C 13.0 °C 1014.1 hPa SSW 18.3 km/h 31.7 km/h 95% 2.3 mm 0 W/m2
05:11 14.1 °C 13.2 °C 1014.1 hPa SSW 15.8 km/h 33.1 km/h 94% 3.0 mm 0 W/m2
05:16 13.9 °C 13.3 °C 1014.1 hPa SSW 18.3 km/h 33.1 km/h 96% 3.0 mm 0 W/m2
05:21 13.9 °C 13.3 °C 1014.1 hPa South 24.5 km/h 33.1 km/h 96% 2.8 mm 0 W/m2
05:26 14.0 °C 13.1 °C 1014.4 hPa SSW 17.2 km/h 33.1 km/h 94% 3.0 mm 0 W/m2
05:31 13.9 °C 12.9 °C 1014.4 hPa SSW 12.2 km/h 33.1 km/h 94% 2.8 mm 0 W/m2
05:36 13.9 °C 12.9 °C 1014.4 hPa SSW 15.8 km/h 29.4 km/h 94% 2.3 mm 0 W/m2
05:41 13.7 °C 12.9 °C 1014.8 hPa WSW 12.2 km/h 25.6 km/h 95% 2.3 mm 0 W/m2
05:46 13.6 °C 13.1 °C 1014.8 hPa SW 8.7 km/h 25.6 km/h 97% 2.3 mm 0 W/m2
05:51 13.4 °C 13.1 °C 1014.8 hPa SW 14.8 km/h 25.6 km/h 98% 2.3 mm 0 W/m2
05:56 13.2 °C 12.9 °C 1014.8 hPa WSW 15.8 km/h 25.6 km/h 98% 1.8 mm 0 W/m2
06:01 13.0 °C 12.7 °C 1014.8 hPa WSW 17.2 km/h 25.6 km/h 98% 1.8 mm 0 W/m2
06:06 12.9 °C 12.4 °C 1014.8 hPa WSW 19.5 km/h 33.1 km/h 97% 1.8 mm 0 W/m2
06:11 12.9 °C 12.4 °C 1015.1 hPa WSW 13.4 km/h 33.1 km/h 97% 1.8 mm 0 W/m2
06:16 12.8 °C 12.3 °C 1015.1 hPa WSW 14.8 km/h 28.0 km/h 97% 1.8 mm 0 W/m2
06:21 12.8 °C 12.3 °C 1015.1 hPa WSW 17.2 km/h 28.0 km/h 97% 1.8 mm 0 W/m2
06:26 12.8 °C 12.3 °C 1015.1 hPa WSW 9.7 km/h 27.0 km/h 97% 2.0 mm 0 W/m2
06:31 12.8 °C 12.3 °C 1015.1 hPa West 19.5 km/h 24.5 km/h 97% 2.3 mm 0 W/m2
06:36 13.0 °C 12.8 °C 1015.1 hPa WSW 9.7 km/h 24.5 km/h 99% 2.8 mm 0 W/m2
06:41 12.9 °C 12.4 °C 1015.5 hPa SSW 15.8 km/h 24.5 km/h 97% 3.0 mm 0 W/m2
06:46 13.1 °C 12.9 °C 1015.5 hPa SSW 19.5 km/h 28.0 km/h 99% 3.3 mm 0 W/m2
06:51 13.0 °C 12.8 °C 1015.1 hPa SW 12.2 km/h 28.0 km/h 99% 3.3 mm 0 W/m2
06:56 13.0 °C 12.8 °C 1015.5 hPa WSW 6.1 km/h 25.6 km/h 99% 3.3 mm 0 W/m2
07:01 13.0 °C 12.8 °C 1015.1 hPa SW 9.7 km/h 21.9 km/h 99% 3.3 mm 0 W/m2
07:06 12.9 °C 12.4 °C 1015.5 hPa SW 15.8 km/h 23.3 km/h 97% 3.6 mm 0 W/m2
07:11 12.9 °C 12.4 °C 1015.5 hPa SW 12.2 km/h 25.6 km/h 97% 3.6 mm 0 W/m2
07:16 12.9 °C 12.4 °C 1015.5 hPa WSW 13.4 km/h 25.6 km/h 97% 3.3 mm 0 W/m2
07:21 12.9 °C 12.4 °C 1015.5 hPa WSW 11.1 km/h 25.6 km/h 97% 3.3 mm 0 W/m2
07:26 12.9 °C 12.4 °C 1015.5 hPa WSW 11.1 km/h 25.6 km/h 97% 3.3 mm 1 W/m2
07:31 12.9 °C 12.4 °C 1015.5 hPa SW 12.2 km/h 27.0 km/h 97% 3.3 mm 1 W/m2
07:36 12.9 °C 12.4 °C 1015.5 hPa SW 11.1 km/h 27.0 km/h 97% 3.3 mm 4 W/m2
07:41 13.0 °C 12.8 °C 1015.5 hPa WSW 14.8 km/h 27.0 km/h 99% 3.3 mm 6 W/m2
07:46 13.0 °C 12.8 °C 1015.5 hPa WSW 13.4 km/h 24.5 km/h 99% 3.3 mm 10 W/m2
07:51 13.0 °C 12.8 °C 1015.5 hPa WSW 9.7 km/h 24.5 km/h 99% 3.0 mm 11 W/m2
07:56 13.0 °C 12.8 °C 1015.8 hPa WSW 9.7 km/h 24.5 km/h 99% 3.0 mm 4 W/m2
08:01 13.1 °C 12.9 °C 1015.8 hPa WSW 6.1 km/h 20.9 km/h 99% 3.3 mm 9 W/m2
08:06 13.1 °C 12.9 °C 1015.8 hPa WSW 11.1 km/h 20.9 km/h 99% 2.8 mm 13 W/m2
08:11 13.2 °C 13.1 °C 1016.1 hPa SW 9.7 km/h 19.5 km/h 99% 2.8 mm 7 W/m2
08:16 13.2 °C 13.1 °C 1016.1 hPa SW 12.2 km/h 19.5 km/h 99% 3.0 mm 10 W/m2
08:21 13.1 °C 12.9 °C 1016.1 hPa SW 7.2 km/h 19.5 km/h 99% 2.8 mm 13 W/m2
08:26 13.1 °C 12.9 °C 1016.1 hPa SW 9.7 km/h 19.5 km/h 99% 2.8 mm 11 W/m2
08:31 13.1 °C 12.9 °C 1016.1 hPa SW 14.8 km/h 24.5 km/h 99% 2.8 mm 13 W/m2
08:36 13.1 °C 12.9 °C 1016.1 hPa SW 14.8 km/h 24.5 km/h 99% 2.8 mm 19 W/m2
08:41 13.2 °C 13.1 °C 1016.1 hPa SW 14.8 km/h 23.3 km/h 99% 2.8 mm 12 W/m2
08:46 13.3 °C 13.2 °C 1016.1 hPa SW 13.4 km/h 23.3 km/h 99% 2.8 mm 18 W/m2
08:51 13.4 °C 13.3 °C 1016.5 hPa SSW 9.7 km/h 23.3 km/h 99% 3.0 mm 27 W/m2
08:56 13.4 °C 13.3 °C 1016.5 hPa SSW 12.2 km/h 21.9 km/h 99% 2.8 mm 19 W/m2
09:01 13.3 °C 13.2 °C 1016.5 hPa SW 9.7 km/h 20.9 km/h 99% 2.8 mm 26 W/m2
09:06 13.3 °C 13.2 °C 1016.5 hPa SW 13.4 km/h 20.9 km/h 99% 2.8 mm 22 W/m2
09:11 13.3 °C 13.2 °C 1016.5 hPa SW 17.2 km/h 24.5 km/h 99% 2.8 mm 13 W/m2
09:16 13.4 °C 13.3 °C 1016.8 hPa SW 17.2 km/h 24.5 km/h 99% 2.3 mm 19 W/m2
09:21 13.5 °C 13.3 °C 1016.5 hPa SW 8.7 km/h 23.3 km/h 99% 2.8 mm 23 W/m2
09:26 13.6 °C 13.4 °C 1016.5 hPa SSW 5.0 km/h 21.9 km/h 99% 2.3 mm 14 W/m2
09:31 13.6 °C 13.4 °C 1016.8 hPa SSW 11.1 km/h 17.2 km/h 99% 2.0 mm 19 W/m2
09:36 13.6 °C 13.4 °C 1016.8 hPa SSW 6.1 km/h 17.2 km/h 99% 2.0 mm 15 W/m2
09:38 13.6 °C 13.4 °C 1016.8 hPa SSW 7.2 km/h 17.2 km/h 99% 1.8 mm 13 W/m2
09:43 13.5 °C 13.3 °C 1016.8 hPa SW 12.2 km/h 21.9 km/h 99% 2.0 mm 20 W/m2
09:48 13.5 °C 13.3 °C 1016.5 hPa SW 14.8 km/h 21.9 km/h 99% 1.8 mm 17 W/m2
09:53 13.5 °C 13.3 °C 1016.8 hPa SW 9.7 km/h 21.9 km/h 99% 2.0 mm 17 W/m2
09:58 13.5 °C 13.3 °C 1016.8 hPa SW 14.8 km/h 24.5 km/h 99% 2.3 mm 22 W/m2
10:03 13.4 °C 13.3 °C 1017.2 hPa WSW 12.2 km/h 24.5 km/h 99% 2.0 mm 18 W/m2
10:08 13.3 °C 13.2 °C 1017.2 hPa SW 9.7 km/h 21.9 km/h 99% 2.0 mm 24 W/m2
10:13 13.2 °C 13.1 °C 1017.2 hPa SW 18.3 km/h 20.9 km/h 99% 2.3 mm 23 W/m2
10:18 13.2 °C 13.1 °C 1017.5 hPa SW 13.4 km/h 21.9 km/h 99% 2.3 mm 32 W/m2
10:23 13.2 °C 13.1 °C 1017.5 hPa SW 6.1 km/h 21.9 km/h 99% 2.8 mm 46 W/m2
10:28 13.3 °C 13.2 °C 1017.5 hPa SW 14.8 km/h 19.5 km/h 99% 2.3 mm 38 W/m2
10:33 13.2 °C 13.1 °C 1017.5 hPa WSW 7.2 km/h 18.3 km/h 99% 2.8 mm 13 W/m2
10:38 13.3 °C 13.2 °C 1017.8 hPa WSW 9.7 km/h 17.2 km/h 99% 3.0 mm 15 W/m2
10:43 13.4 °C 13.3 °C 1017.5 hPa SSW 9.7 km/h 14.8 km/h 99% 3.3 mm 16 W/m2
10:48 13.4 °C 13.3 °C 1017.8 hPa South 8.7 km/h 18.3 km/h 99% 3.8 mm 32 W/m2
10:53 13.2 °C 13.1 °C 1017.8 hPa South 5.0 km/h 18.3 km/h 99% 3.8 mm 32 W/m2
10:58 13.3 °C 13.2 °C 1017.8 hPa SSE 11.1 km/h 17.2 km/h 99% 3.8 mm 41 W/m2
11:03 13.3 °C 13.2 °C 1017.8 hPa SSE 6.1 km/h 19.5 km/h 99% 4.3 mm 44 W/m2
11:08 13.3 °C 13.2 °C 1017.8 hPa South 8.7 km/h 19.5 km/h 99% 3.8 mm 49 W/m2
11:13 13.2 °C 13.1 °C 1017.8 hPa SSE 5.0 km/h 14.8 km/h 99% 3.8 mm 56 W/m2
11:18 13.2 °C 12.9 °C 1017.8 hPa Calm   12.2 km/h 98% 3.8 mm 82 W/m2
11:23 13.4 °C 12.9 °C 1017.8 hPa SE 1.1 km/h 12.2 km/h 97% 3.6 mm 108 W/m2
11:28 13.6 °C 13.1 °C 1017.8 hPa Calm   5.0 km/h 97% 3.6 mm 120 W/m2
11:33 13.7 °C 13.4 °C 1017.5 hPa Calm   5.0 km/h 98% 3.3 mm 133 W/m2
11:38 14.1 °C 13.6 °C 1017.5 hPa Calm     97% 2.3 mm 161 W/m2
11:43 14.1 °C 13.6 °C 1017.5 hPa Calm     97% 1.8 mm 203 W/m2
11:48 14.4 °C 13.9 °C 1017.5 hPa Calm     97% 1.5 mm 209 W/m2
11:53 14.5 °C 14.1 °C 1017.5 hPa Calm   5.0 km/h 97% 1.5 mm 90 W/m2
11:58 14.6 °C 14.0 °C 1017.5 hPa Calm   5.0 km/h 96% 1.3 mm 29 W/m2
12:03 14.3 °C 13.7 °C 1017.5 hPa Calm     96% 1.0 mm 32 W/m2
12:08 14.2 °C 13.6 °C 1017.5 hPa West 2.6 km/h 5.0 km/h 96% 1.0 mm 68 W/m2
12:13 14.1 °C 13.5 °C 1017.5 hPa West 1.1 km/h 7.2 km/h 96% 0.5 mm 85 W/m2
12:18 13.9 °C 13.4 °C 1017.8 hPa NW 5.0 km/h 11.1 km/h 97% 0.3 mm 78 W/m2
12:23 13.5 °C 13.1 °C 1017.8 hPa Calm   11.1 km/h 97% 0.3 mm 49 W/m2
12:28 13.4 °C 12.9 °C 1017.5 hPa Calm   8.7 km/h 97% 0.3 mm 56 W/m2
12:33 13.4 °C 12.9 °C 1017.8 hPa Calm   6.1 km/h 97% 0.5 mm 117 W/m2
12:38 13.4 °C 13.1 °C 1017.5 hPa NNW 2.6 km/h 6.1 km/h 98% 0.5 mm 128 W/m2
12:43 13.4 °C 13.1 °C 1017.5 hPa WNW 5.0 km/h 8.7 km/h 98% 0.5 mm 182 W/m2
12:48 13.9 °C 13.8 °C 1017.5 hPa SW 6.1 km/h 11.1 km/h 99% 0.3 mm 211 W/m2
12:53 14.2 °C 13.9 °C 1017.5 hPa SSW 6.1 km/h 11.1 km/h 98% 0.3 mm 191 W/m2
12:58 14.2 °C 13.7 °C 1017.5 hPa SSW 6.1 km/h 11.1 km/h 97% 0.3 mm 198 W/m2
13:03 14.6 °C 14.0 °C 1017.5 hPa Calm   11.1 km/h 96% 0.3 mm 203 W/m2
13:08 14.8 °C 14.2 °C 1017.5 hPa SW 2.6 km/h 8.7 km/h 96% 0.3 mm 111 W/m2
13:13 14.8 °C 13.8 °C 1017.8 hPa South 1.1 km/h 7.2 km/h 94% 0.5 mm 88 W/m2
13:18 14.8 °C 13.8 °C 1017.8 hPa Calm   7.2 km/h 94% 0.5 mm 83 W/m2
13:23 14.8 °C 13.8 °C 1017.8 hPa ENE 1.1 km/h 5.0 km/h 94% 1.0 mm 99 W/m2
13:28 14.7 °C 13.8 °C 1017.8 hPa Calm   5.0 km/h 94% 1.3 mm 153 W/m2
13:33 14.6 °C 13.7 °C 1017.5 hPa Calm   5.0 km/h 94% 1.0 mm 202 W/m2
13:38 14.6 °C 13.8 °C 1017.8 hPa NW 2.6 km/h 9.7 km/h 95% 1.0 mm 113 W/m2
13:43 14.6 °C 13.8 °C 1017.5 hPa Calm   9.7 km/h 95% 1.0 mm 78 W/m2
13:48 14.4 °C 13.6 °C 1017.5 hPa SSW 8.7 km/h 12.2 km/h 95% 1.3 mm 89 W/m2
13:53 14.4 °C 13.6 °C 1017.5 hPa SSE 9.7 km/h 14.8 km/h 95% 1.3 mm 116 W/m2
13:58 14.5 °C 13.7 °C 1017.8 hPa Calm   14.8 km/h 95% 1.3 mm 151 W/m2
14:03 14.6 °C 13.8 °C 1017.5 hPa East 2.6 km/h 13.4 km/h 95% 1.3 mm 147 W/m2
14:08 14.7 °C 14.1 °C 1017.5 hPa Calm   9.7 km/h 96% 1.3 mm 151 W/m2
14:13 14.8 °C 14.2 °C 1017.2 hPa East 3.5 km/h 9.7 km/h 96% 1.0 mm 153 W/m2
14:18 14.9 °C 13.9 °C 1017.5 hPa East 3.5 km/h 13.4 km/h 94% 1.0 mm 165 W/m2
14:23 15.0 °C 13.4 °C 1017.5 hPa ESE 7.2 km/h 14.8 km/h 90% 0.5 mm 179 W/m2
14:28 15.4 °C 12.6 °C 1017.2 hPa SE 7.2 km/h 14.8 km/h 83% 0.3 mm 194 W/m2
14:33 15.7 °C 11.9 °C 1017.2 hPa SE 7.2 km/h 14.8 km/h 78% 0.3 mm 212 W/m2
14:38 16.0 °C 12.7 °C 1017.2 hPa ESE 2.6 km/h 14.8 km/h 81% 0.3 mm 203 W/m2
14:43 16.2 °C 13.3 °C 1017.5 hPa East 1.1 km/h 12.2 km/h 83% 0.3 mm 191 W/m2
14:48 16.3 °C 13.4 °C 1017.5 hPa SE 7.2 km/h 19.5 km/h 83% 0.0 mm 141 W/m2
14:53 16.2 °C 12.6 °C 1017.2 hPa South 8.7 km/h 19.5 km/h 79% 0.0 mm 97 W/m2
14:58 15.8 °C 12.6 °C 1017.5 hPa SSE 12.2 km/h 25.6 km/h 81% 0.0 mm 123 W/m2
15:03 15.5 °C 12.6 °C 1017.5 hPa South 11.1 km/h 25.6 km/h 83% 0.3 mm 153 W/m2
15:08 15.4 °C 12.7 °C 1017.5 hPa SSW 6.1 km/h 20.9 km/h 84% 0.3 mm 157 W/m2
15:13 15.5 °C 12.6 °C 1017.5 hPa Calm   14.8 km/h 83% 0.3 mm 147 W/m2
15:18 15.8 °C 12.6 °C 1017.5 hPa SSE 8.7 km/h 13.4 km/h 81% 0.3 mm 121 W/m2
15:23 16.1 °C 12.4 °C 1017.5 hPa SSE 8.7 km/h 17.2 km/h 79% 0.3 mm 105 W/m2
15:28 15.7 °C 11.9 °C 1017.5 hPa SE 3.5 km/h 17.2 km/h 78% 0.3 mm 120 W/m2
15:33 15.6 °C 11.8 °C 1017.5 hPa SSE 8.7 km/h 15.8 km/h 78% 0.3 mm 86 W/m2
15:38 15.3 °C 12.1 °C 1017.5 hPa South 17.2 km/h 23.3 km/h 81% 1.0 mm 78 W/m2
15:43 14.8 °C 12.8 °C 1017.5 hPa South 8.7 km/h 25.6 km/h 88% 1.8 mm 72 W/m2
15:48 14.6 °C 13.0 °C 1017.5 hPa SSE 12.2 km/h 25.6 km/h 90% 2.0 mm 64 W/m2
15:53 14.9 °C 13.3 °C 1017.5 hPa South 7.2 km/h 21.9 km/h 90% 2.0 mm 50 W/m2
15:58 15.1 °C 12.8 °C 1017.5 hPa SSE 11.1 km/h 21.9 km/h 86% 2.0 mm 88 W/m2
16:03 15.2 °C 12.7 °C 1017.5 hPa SE 11.1 km/h 20.9 km/h 85% 1.8 mm 91 W/m2
16:08 15.4 °C 12.6 °C 1017.5 hPa SSE 9.7 km/h 24.5 km/h 83% 1.8 mm 125 W/m2
16:13 15.7 °C 12.7 °C 1017.5 hPa South 12.2 km/h 24.5 km/h 82% 1.8 mm 159 W/m2
16:34 15.7 °C 12.7 °C 1017.8 hPa South 18.3 km/h 28.0 km/h 82% 1.8 mm 86 W/m2
16:39 15.7 °C 12.4 °C 1017.8 hPa South 15.8 km/h 30.6 km/h 81% 1.0 mm 96 W/m2
16:44 15.6 °C 12.0 °C 1017.8 hPa South 11.1 km/h 30.6 km/h 79% 0.0 mm 101 W/m2
16:49 15.7 °C 12.1 °C 1017.8 hPa South 8.7 km/h 28.0 km/h 79% 0.0 mm 98 W/m2
16:54 15.7 °C 12.1 °C 1017.8 hPa SSE 12.2 km/h 23.3 km/h 79% 0.0 mm 96 W/m2
16:59 15.8 °C 12.2 °C 1017.8 hPa SSE 15.8 km/h 23.3 km/h 79% 0.0 mm 87 W/m2
17:05 15.7 °C 11.9 °C 1017.8 hPa South 13.4 km/h 21.9 km/h 78% 0.0 mm 83 W/m2
17:10 15.8 °C 11.8 °C 1018.2 hPa South 11.1 km/h 20.9 km/h 77% 0.0 mm 82 W/m2
17:16 15.8 °C 11.4 °C 1017.8 hPa South 12.2 km/h 24.5 km/h 75% 0.0 mm 84 W/m2
17:21 15.8 °C 11.4 °C 1018.2 hPa SSE 20.9 km/h 24.5 km/h 75% 0.0 mm 89 W/m2
17:26 15.7 °C 11.1 °C 1018.2 hPa SSE 9.7 km/h 24.5 km/h 74% 0.0 mm 70 W/m2
17:31 15.7 °C 11.3 °C 1018.2 hPa South 12.2 km/h 20.9 km/h 75% 0.0 mm 60 W/m2
17:36 15.8 °C 11.2 °C 1018.2 hPa SSE 5.0 km/h 15.8 km/h 74% 0.0 mm 79 W/m2
17:37 15.8 °C 11.2 °C 1018.2 hPa SSE 1.1 km/h 15.8 km/h 74% 0.0 mm 80 W/m2
17:42 15.9 °C 11.5 °C 1018.5 hPa SSE 6.1 km/h 14.8 km/h 75% 0.0 mm 62 W/m2
17:47 15.7 °C 12.7 °C 1018.2 hPa South 11.1 km/h 25.6 km/h 82% 0.0 mm 43 W/m2
17:52 15.4 °C 12.7 °C 1018.2 hPa South 14.8 km/h 25.6 km/h 84% 0.0 mm 72 W/m2
17:53 15.3 °C 12.6 °C 1018.5 hPa South 17.2 km/h 25.6 km/h 84% 0.0 mm 66 W/m2
17:58 14.8 °C 12.8 °C 1018.5 hPa South 15.8 km/h 24.5 km/h 88% 0.0 mm 50 W/m2
18:03 14.4 °C 12.8 °C 1018.5 hPa South 8.7 km/h 23.3 km/h 90% 0.0 mm 39 W/m2
18:08 14.2 °C 12.9 °C 1018.8 hPa South 12.2 km/h 23.3 km/h 92% 0.0 mm 36 W/m2
18:13 14.3 °C 13.0 °C 1018.5 hPa South 14.8 km/h 20.9 km/h 92% 0.0 mm 25 W/m2
18:18 14.2 °C 12.8 °C 1018.5 hPa SSE 12.2 km/h 19.5 km/h 91% 0.0 mm 33 W/m2
18:23 14.3 °C 12.5 °C 1018.5 hPa South 7.2 km/h 17.2 km/h 89% 0.0 mm 34 W/m2
18:28 14.7 °C 12.4 °C 1018.5 hPa South 6.1 km/h 20.9 km/h 86% 0.0 mm 29 W/m2
18:33 14.9 °C 12.4 °C 1018.5 hPa SSE 5.0 km/h 20.9 km/h 85% 0.0 mm 18 W/m2
18:38 15.1 °C 11.9 °C 1018.5 hPa SSE 1.1 km/h 14.8 km/h 81% 0.0 mm 22 W/m2
18:43 15.2 °C 12.2 °C 1018.5 hPa SSE 5.0 km/h 14.8 km/h 82% 0.0 mm 20 W/m2
18:48 15.3 °C 12.4 °C 1018.8 hPa SE 6.1 km/h 12.2 km/h 83% 0.0 mm 23 W/m2
18:53 15.1 °C 12.2 °C 1018.8 hPa ESE 2.6 km/h 15.8 km/h 83% 0.0 mm 19 W/m2
18:58 15.0 °C 12.3 °C 1018.8 hPa SE 9.7 km/h 17.2 km/h 84% 0.0 mm 17 W/m2
19:03 15.2 °C 11.4 °C 1018.8 hPa South 12.2 km/h 23.3 km/h 78% 0.0 mm 17 W/m2
19:08 15.4 °C 11.6 °C 1018.8 hPa South 6.1 km/h 23.3 km/h 78% 0.0 mm 13 W/m2
19:13 15.4 °C 11.2 °C 1018.8 hPa South 9.7 km/h 20.9 km/h 76% 0.0 mm 8 W/m2
19:18 15.5 °C 11.1 °C 1018.8 hPa South 9.7 km/h 17.2 km/h 75% 0.0 mm 5 W/m2
19:23 15.6 °C 11.0 °C 1019.2 hPa South 11.1 km/h 20.9 km/h 74% 0.0 mm 4 W/m2
19:28 15.4 °C 12.3 °C 1019.2 hPa South 17.2 km/h 25.6 km/h 82% 0.0 mm 2 W/m2
19:33 15.1 °C 12.4 °C 1019.2 hPa South 15.8 km/h 25.6 km/h 84% 0.0 mm 1 W/m2
19:38 15.1 °C 12.1 °C 1019.2 hPa South 12.2 km/h 23.3 km/h 82% 0.0 mm 0 W/m2
19:43 15.1 °C 11.9 °C 1019.2 hPa SSE 9.7 km/h 18.3 km/h 81% 0.0 mm 0 W/m2
19:48 15.2 °C 11.6 °C 1019.2 hPa SSE 7.2 km/h 15.8 km/h 79% 0.0 mm 0 W/m2
19:53 15.3 °C 11.5 °C 1019.5 hPa SSE 7.2 km/h 12.2 km/h 78% 0.0 mm 0 W/m2
19:58 15.2 °C 11.6 °C 1019.5 hPa SE 9.7 km/h 20.9 km/h 79% 0.3 mm 0 W/m2
20:03 14.9 °C 11.8 °C 1019.5 hPa ESE 3.5 km/h 20.9 km/h 82% 0.3 mm 0 W/m2
20:08 14.5 °C 11.8 °C 1019.5 hPa ENE 2.6 km/h 12.2 km/h 84% 0.3 mm 0 W/m2
20:13 14.3 °C 11.6 °C 1019.5 hPa ENE 5.0 km/h 9.7 km/h 84% 0.3 mm 0 W/m2
20:18 14.5 °C 11.8 °C 1019.5 hPa ENE 7.2 km/h 9.7 km/h 84% 0.3 mm 0 W/m2
20:23 14.6 °C 11.8 °C 1019.5 hPa ENE 3.5 km/h 9.7 km/h 83% 0.3 mm 0 W/m2
20:28 14.6 °C 11.8 °C 1019.5 hPa NE 5.0 km/h 9.7 km/h 83% 0.3 mm 0 W/m2
20:33 14.8 °C 11.4 °C 1019.5 hPa ENE 9.7 km/h 13.4 km/h 80% 0.3 mm 0 W/m2
20:38 15.0 °C 11.2 °C 1019.5 hPa East 3.5 km/h 13.4 km/h 78% 0.3 mm 0 W/m2
20:43 15.1 °C 11.3 °C 1019.5 hPa East 3.5 km/h 11.1 km/h 78% 0.3 mm 0 W/m2
20:48 15.1 °C 11.1 °C 1019.9 hPa ENE 3.5 km/h 9.7 km/h 77% 0.3 mm 0 W/m2
20:53 15.0 °C 11.2 °C 1019.9 hPa ENE 1.1 km/h 9.7 km/h 78% 0.3 mm 0 W/m2
20:58 14.9 °C 12.2 °C 1020.2 hPa SE 3.5 km/h 18.3 km/h 84% 0.0 mm 0 W/m2
21:03 14.7 °C 12.6 °C 1019.9 hPa SSE 20.9 km/h 25.6 km/h 87% 0.0 mm 0 W/m2
21:08 14.6 °C 12.8 °C 1020.2 hPa South 13.4 km/h 25.6 km/h 89% 0.0 mm 0 W/m2
21:13 14.6 °C 12.7 °C 1020.2 hPa South 12.2 km/h 30.6 km/h 88% 0.0 mm 0 W/m2
21:18 14.6 °C 12.7 °C 1020.2 hPa SSE 11.1 km/h 30.6 km/h 88% 0.0 mm 0 W/m2
21:23 14.7 °C 12.6 °C 1020.2 hPa South 9.7 km/h 20.9 km/h 87% 0.0 mm 0 W/m2
21:28 14.8 °C 12.3 °C 1020.2 hPa South 13.4 km/h 20.9 km/h 85% 0.0 mm 0 W/m2
21:33 14.9 °C 12.2 °C 1020.5 hPa South 13.4 km/h 25.6 km/h 84% 0.0 mm 0 W/m2
21:38 15.0 °C 12.2 °C 1020.5 hPa South 12.2 km/h 25.6 km/h 83% 0.0 mm 0 W/m2
21:43 15.1 °C 11.9 °C 1020.2 hPa South 6.1 km/h 19.5 km/h 81% 0.0 mm 0 W/m2
21:48 15.2 °C 11.8 °C 1020.5 hPa SSE 7.2 km/h 19.5 km/h 80% 0.0 mm 0 W/m2
21:53 15.2 °C 11.4 °C 1020.5 hPa SE 8.7 km/h 18.3 km/h 78% 0.0 mm 0 W/m2
21:58 15.3 °C 11.3 °C 1020.5 hPa SE 7.2 km/h 13.4 km/h 77% 0.0 mm 0 W/m2
22:03 15.4 °C 10.8 °C 1020.5 hPa South 5.0 km/h 13.4 km/h 74% 0.0 mm 0 W/m2
22:08 15.5 °C 11.1 °C 1020.5 hPa South 5.0 km/h 13.4 km/h 75% 0.0 mm 0 W/m2
22:13 15.5 °C 11.1 °C 1020.9 hPa Calm   11.1 km/h 75% 0.0 mm 0 W/m2
22:18 15.4 °C 11.0 °C 1020.5 hPa Calm   6.1 km/h 75% 0.0 mm 0 W/m2
22:23 15.3 °C 11.1 °C 1020.9 hPa Calm   1.1 km/h 76% 0.0 mm 0 W/m2
22:28 15.2 °C 11.0 °C 1020.9 hPa ESE 2.6 km/h 6.1 km/h 76% 0.0 mm 0 W/m2
22:33 15.3 °C 10.9 °C 1020.9 hPa NE 7.2 km/h 9.7 km/h 75% 0.0 mm 0 W/m2
22:38 14.9 °C 12.1 °C 1020.9 hPa North 5.0 km/h 9.7 km/h 83% 0.0 mm 0 W/m2
22:43 14.6 °C 12.1 °C 1020.9 hPa North 6.1 km/h 9.7 km/h 85% 0.0 mm 0 W/m2
22:48 14.2 °C 12.1 °C 1020.9 hPa North 3.5 km/h 8.7 km/h 87% 0.0 mm 0 W/m2
22:53 14.1 °C 12.2 °C 1020.9 hPa NNW 3.5 km/h 8.7 km/h 88% 0.0 mm 0 W/m2
22:58 14.0 °C 12.4 °C 1020.9 hPa NNW 2.6 km/h 7.2 km/h 90% 0.0 mm 0 W/m2
23:03 13.9 °C 12.4 °C 1020.9 hPa North 3.5 km/h 7.2 km/h 91% 0.0 mm 0 W/m2
23:08 13.8 °C 12.6 °C 1020.9 hPa NNW 2.6 km/h 8.7 km/h 92% 0.0 mm 0 W/m2
23:13 13.7 °C 12.6 °C 1020.9 hPa NNW 2.6 km/h 8.7 km/h 93% 0.0 mm 0 W/m2
23:18 13.7 °C 12.8 °C 1021.2 hPa Calm   5.0 km/h 94% 0.0 mm 0 W/m2
23:23 13.6 °C 12.7 °C 1021.2 hPa North 7.2 km/h 8.7 km/h 94% 0.0 mm 0 W/m2
23:28 13.5 °C 12.7 °C 1021.2 hPa North 7.2 km/h 11.1 km/h 95% 0.0 mm 0 W/m2
23:33 13.6 °C 12.8 °C 1020.9 hPa North 3.5 km/h 11.1 km/h 95% 0.0 mm 0 W/m2
23:38 13.6 °C 12.8 °C 1021.2 hPa NNW 3.5 km/h 9.7 km/h 95% 0.0 mm 0 W/m2
23:43 13.5 °C 12.7 °C 1020.9 hPa NNW 3.5 km/h 7.2 km/h 95% 0.0 mm 0 W/m2
23:48 13.5 °C 12.7 °C 1020.9 hPa Calm   6.1 km/h 95% 0.0 mm 0 W/m2
23:53 13.5 °C 12.7 °C 1021.2 hPa NNW 1.1 km/h 6.1 km/h 95% 0.0 mm 0 W/m2
23:58 13.5 °C 12.7 °C 1021.2 hPa NW 5.0 km/h 7.2 km/h 95% 0.0 mm 0 W/m2
Northern Hawkes Bay. New Zealand Historic Data
Compliments of Weather Underground - 2 mb